createdAt,value
2022-08-23T00:00:48.406Z,15.70
2022-08-23T00:03:23.516Z,15.70
2022-08-23T00:05:55.409Z,15.70
2022-08-23T00:08:26.577Z,15.70
2022-08-23T00:10:57.021Z,15.60
2022-08-23T00:13:28.150Z,15.70
2022-08-23T00:16:17.898Z,15.60
2022-08-23T00:18:49.394Z,15.50
2022-08-23T00:21:20.782Z,15.50
2022-08-23T00:23:51.499Z,15.60
2022-08-23T00:26:28.136Z,15.50
2022-08-23T00:28:59.415Z,15.50
2022-08-23T00:31:33.209Z,15.60
2022-08-23T00:34:04.095Z,15.50
2022-08-23T00:36:35.254Z,15.60
2022-08-23T00:39:06.231Z,15.60
2022-08-23T00:41:35.984Z,15.50
2022-08-23T00:44:24.338Z,15.50
2022-08-23T00:47:15.130Z,15.50
2022-08-23T00:49:50.876Z,15.50
2022-08-23T00:52:57.088Z,15.50
2022-08-23T00:56:08.617Z,15.50
2022-08-23T00:59:20.613Z,15.60
2022-08-23T01:02:11.097Z,15.50
2022-08-23T01:04:46.929Z,15.60
2022-08-23T01:07:48.059Z,15.60
2022-08-23T01:10:45.426Z,15.60
2022-08-23T01:13:39.561Z,15.70
2022-08-23T01:16:20.059Z,15.60
2022-08-23T01:18:55.500Z,15.60
2022-08-23T01:21:36.445Z,15.60
2022-08-23T01:24:08.849Z,15.70
2022-08-23T01:26:49.543Z,15.60
2022-08-23T01:29:20.079Z,15.60
2022-08-23T01:31:53.235Z,15.70
2022-08-23T01:34:27.111Z,15.70
2022-08-23T01:36:57.308Z,15.60
2022-08-23T01:39:27.304Z,15.70
2022-08-23T01:41:58.195Z,15.60
2022-08-23T01:44:28.708Z,15.70
2022-08-23T01:47:02.016Z,15.60
2022-08-23T01:49:34.104Z,15.60
2022-08-23T01:52:07.285Z,15.60
2022-08-23T01:54:38.437Z,15.60
2022-08-23T01:57:12.162Z,15.70
2022-08-23T01:59:43.893Z,15.70
2022-08-23T02:02:15.381Z,15.70
2022-08-23T02:04:47.169Z,15.70
2022-08-23T02:07:17.881Z,15.60
2022-08-23T02:09:50.865Z,15.60
2022-08-23T02:12:25.304Z,15.60
2022-08-23T02:14:56.462Z,15.50
2022-08-23T02:17:26.187Z,15.50
2022-08-23T02:19:56.938Z,15.50
2022-08-23T02:22:28.749Z,15.60
2022-08-23T02:24:59.742Z,15.50
2022-08-23T02:27:32.633Z,15.50
2022-08-23T02:30:07.082Z,15.50
2022-08-23T02:32:39.799Z,15.60
2022-08-23T02:46:42.303Z,15.50
2022-08-23T02:49:16.831Z,15.50
2022-08-23T02:51:51.143Z,15.60
2022-08-23T02:54:21.734Z,15.50
2022-08-23T02:56:54.524Z,15.50
2022-08-23T02:59:26.475Z,15.60
2022-08-23T03:02:02.189Z,15.60
2022-08-23T03:04:33.157Z,15.60
2022-08-23T03:07:07.717Z,15.60
2022-08-23T03:09:43.587Z,15.60
2022-08-23T03:12:13.674Z,15.70
2022-08-23T03:14:42.696Z,15.70
2022-08-23T03:17:18.986Z,15.70
2022-08-23T03:19:49.391Z,15.70
2022-08-23T03:22:30.081Z,15.60
2022-08-23T03:25:01.954Z,15.70
2022-08-23T03:27:38.462Z,15.70
2022-08-23T03:30:19.938Z,15.70
2022-08-23T03:32:54.496Z,15.70
2022-08-23T03:35:23.670Z,15.70
2022-08-23T03:37:56.221Z,15.70
2022-08-23T03:40:26.476Z,15.60
2022-08-23T03:42:57.062Z,15.70
2022-08-23T03:45:27.178Z,15.60
2022-08-23T03:47:57.091Z,15.60
2022-08-23T03:50:29.097Z,15.60
2022-08-23T03:53:03.232Z,15.70
2022-08-23T03:55:32.485Z,15.60
2022-08-23T03:58:07.654Z,15.50
2022-08-23T04:00:37.933Z,15.60
2022-08-23T04:03:10.900Z,15.60
2022-08-23T04:05:40.167Z,15.50
2022-08-23T04:08:18.074Z,15.50
2022-08-23T04:11:08.929Z,15.60
2022-08-23T04:13:40.004Z,15.60
2022-08-23T04:16:11.607Z,15.60
2022-08-23T04:18:43.949Z,15.70
2022-08-23T04:21:16.078Z,15.70
2022-08-23T04:23:45.379Z,15.70
2022-08-23T04:26:14.242Z,15.80
2022-08-23T04:28:48.854Z,15.80
2022-08-23T04:31:23.948Z,16.00
2022-08-23T04:33:53.028Z,16.00
2022-08-23T04:36:24.132Z,15.90
2022-08-23T04:39:00.229Z,15.90
2022-08-23T04:41:48.454Z,15.90
2022-08-23T04:44:17.929Z,15.80
2022-08-23T04:46:48.774Z,15.90
2022-08-23T04:49:21.290Z,15.80
2022-08-23T04:51:56.627Z,15.90
2022-08-23T04:54:32.564Z,15.90
2022-08-23T04:57:06.538Z,15.90
2022-08-23T04:59:39.780Z,15.90
2022-08-23T05:02:13.508Z,15.90
2022-08-23T05:04:44.011Z,16.00
2022-08-23T05:07:16.736Z,16.00
2022-08-23T05:09:46.537Z,16.10
2022-08-23T05:12:22.941Z,16.20
2022-08-23T05:14:58.663Z,16.20
2022-08-23T05:17:30.695Z,16.10
2022-08-23T05:20:02.530Z,16.10
2022-08-23T05:22:35.595Z,16.00
2022-08-23T05:25:04.870Z,16.10
2022-08-23T05:27:37.930Z,16.10
2022-08-23T05:30:09.313Z,16.20
2022-08-23T05:32:46.057Z,16.20
2022-08-23T05:35:16.138Z,16.20
2022-08-23T05:37:49.087Z,16.30
2022-08-23T05:40:22.813Z,16.30
2022-08-23T05:42:51.529Z,16.40
2022-08-23T05:45:25.965Z,16.50
2022-08-23T05:48:02.334Z,16.40
2022-08-23T05:50:35.131Z,16.30
2022-08-23T05:53:09.247Z,16.40
2022-08-23T05:55:39.495Z,16.30
2022-08-23T05:58:08.612Z,16.20
2022-08-23T06:00:40.696Z,16.50
2022-08-23T06:03:16.652Z,16.40
2022-08-23T06:05:47.841Z,16.50
2022-08-23T06:08:17.832Z,16.40
2022-08-23T06:10:50.737Z,16.50
2022-08-23T06:13:23.453Z,16.40
2022-08-23T06:15:53.347Z,16.50
2022-08-23T06:18:26.350Z,16.40
2022-08-23T06:21:07.967Z,16.40
2022-08-23T06:23:44.138Z,16.40
2022-08-23T06:26:16.035Z,16.50
2022-08-23T06:28:53.017Z,16.40
2022-08-23T06:31:42.212Z,16.50
2022-08-23T06:34:18.665Z,16.60
2022-08-23T06:36:58.544Z,16.60
2022-08-23T06:39:33.356Z,16.60
2022-08-23T06:42:34.863Z,16.50
2022-08-23T06:44:59.432Z,16.70
2022-08-23T06:47:29.417Z,16.70
2022-08-23T06:50:04.098Z,16.60
2022-08-23T06:52:34.405Z,16.60
2022-08-23T06:55:05.175Z,16.70
2022-08-23T06:57:35.623Z,16.80
2022-08-23T07:00:10.030Z,16.80
2022-08-23T07:02:39.558Z,16.80
2022-08-23T07:05:15.772Z,16.80
2022-08-23T07:07:46.959Z,16.80
2022-08-23T07:10:20.002Z,16.80
2022-08-23T07:12:55.504Z,17.00
2022-08-23T07:15:27.548Z,17.00
2022-08-23T07:17:58.247Z,17.20
2022-08-23T07:20:34.987Z,17.30
2022-08-23T07:23:05.076Z,17.40
2022-08-23T07:25:36.229Z,17.50
2022-08-23T07:28:14.964Z,17.90
2022-08-23T07:30:45.381Z,17.70
2022-08-23T07:33:19.157Z,17.90
2022-08-23T07:35:54.830Z,17.80
2022-08-23T07:38:30.601Z,18.00
2022-08-23T07:40:59.983Z,18.00
2022-08-23T07:43:40.524Z,18.00
2022-08-23T07:46:18.858Z,18.20
2022-08-23T07:48:54.420Z,18.60
2022-08-23T07:51:28.282Z,18.70
2022-08-23T07:54:02.164Z,18.60
2022-08-23T07:56:33.456Z,18.80
2022-08-23T08:00:43.340Z,19.10
2022-08-23T08:02:57.498Z,19.30
2022-08-23T08:05:29.019Z,19.80
2022-08-23T08:07:59.923Z,19.70
2022-08-23T08:13:35.832Z,19.40
2022-08-23T08:17:08.427Z,19.70
2022-08-23T08:20:00.394Z,19.10
2022-08-23T08:22:47.209Z,19.50
2022-08-23T08:25:24.958Z,19.50
2022-08-23T08:27:57.829Z,19.20
2022-08-23T08:33:38.891Z,19.10
2022-08-23T08:37:05.971Z,18.90
2022-08-23T08:39:47.350Z,19.00
2022-08-23T08:42:33.943Z,18.80
2022-08-23T08:45:58.949Z,18.60
2022-08-23T08:48:36.026Z,18.50
2022-08-23T08:51:24.181Z,18.20
2022-08-23T08:53:56.715Z,18.00
2022-08-23T08:56:32.360Z,18.10
2022-08-23T08:59:11.219Z,18.00
2022-08-23T09:02:30.417Z,17.90
2022-08-23T09:05:09.256Z,18.00
2022-08-23T09:07:39.800Z,17.90
2022-08-23T09:10:26.075Z,17.90
2022-08-23T09:13:31.151Z,17.90
2022-08-23T09:16:42.741Z,17.90
2022-08-23T09:19:20.883Z,17.80
2022-08-23T09:22:18.632Z,17.80
2022-08-23T09:24:59.787Z,17.90
2022-08-23T09:27:32.718Z,17.90
2022-08-23T09:30:13.420Z,17.70
2022-08-23T09:33:16.718Z,17.80
2022-08-23T09:36:04.082Z,17.80
2022-08-23T09:38:39.566Z,17.90
2022-08-23T09:41:58.833Z,17.70
2022-08-23T09:44:37.417Z,17.70
2022-08-23T09:47:14.325Z,17.80
2022-08-23T09:49:45.825Z,17.70
2022-08-23T09:52:34.129Z,17.70
2022-08-23T09:55:17.966Z,17.50
2022-08-23T09:58:00.695Z,17.50
2022-08-23T10:00:36.994Z,17.60
2022-08-23T10:03:33.740Z,17.60
2022-08-23T10:06:31.078Z,17.60
2022-08-23T10:09:07.402Z,17.60
2022-08-23T10:11:56.880Z,17.60
2022-08-23T10:14:31.307Z,17.70
2022-08-23T10:17:13.752Z,17.60
2022-08-23T10:20:23.915Z,17.70
2022-08-23T10:23:06.504Z,17.80
2022-08-23T10:26:05.662Z,18.10
2022-08-23T10:28:55.445Z,18.20
2022-08-23T10:31:58.890Z,18.40
2022-08-23T10:34:36.949Z,18.60
2022-08-23T10:37:17.027Z,18.70
2022-08-23T10:40:13.371Z,18.80
2022-08-23T10:48:58.009Z,19.00
2022-08-23T10:52:16.264Z,18.90
2022-08-23T10:55:29.551Z,19.10
2022-08-23T10:57:59.828Z,19.40
2022-08-23T11:00:33.247Z,19.70
2022-08-23T11:03:28.963Z,19.70
2022-08-23T11:06:35.637Z,19.60
2022-08-23T11:09:17.659Z,19.30
2022-08-23T11:12:14.263Z,19.40
2022-08-23T11:15:01.490Z,19.30
2022-08-23T11:17:50.146Z,19.50
2022-08-23T11:21:12.847Z,19.50
2022-08-23T11:24:10.861Z,19.40
2022-08-23T11:27:10.064Z,19.40
2022-08-23T11:29:43.778Z,19.50
2022-08-23T11:32:28.099Z,19.50
2022-08-23T11:35:12.044Z,19.50
2022-08-23T11:38:05.241Z,19.30
2022-08-23T11:41:30.116Z,19.30
2022-08-23T11:44:14.263Z,19.50
2022-08-23T11:47:14.504Z,19.60
2022-08-23T11:49:56.360Z,20.00
2022-08-23T11:52:46.264Z,19.90
2022-08-23T11:57:00.229Z,20.00
2022-08-23T11:59:25.964Z,20.40
2022-08-23T12:02:43.981Z,20.10
2022-08-23T12:05:22.686Z,20.20
2022-08-23T12:07:55.632Z,20.50
2022-08-23T12:10:47.730Z,20.20
2022-08-23T12:13:23.148Z,20.20
2022-08-23T12:16:17.524Z,20.20
2022-08-23T12:18:48.080Z,20.30
2022-08-23T12:21:39.196Z,19.90
2022-08-23T12:24:28.925Z,20.00
2022-08-23T12:27:12.800Z,20.30
2022-08-23T13:10:38.787Z,20.60
2022-08-23T13:13:15.428Z,20.90
2022-08-23T13:15:49.798Z,21.10
2022-08-23T13:18:44.577Z,21.10
2022-08-23T13:21:54.510Z,21.00
2022-08-23T13:24:39.335Z,20.70
2022-08-23T13:27:47.643Z,20.30
2022-08-23T13:30:17.918Z,20.20
2022-08-23T13:33:08.905Z,20.30
2022-08-23T15:23:25.667Z,19.90
2022-08-23T15:26:01.019Z,19.90
2022-08-23T15:28:52.504Z,19.70
2022-08-23T15:31:28.549Z,19.50
2022-08-23T15:34:02.831Z,19.70
2022-08-23T15:36:36.142Z,19.70
2022-08-23T15:39:05.430Z,19.60
2022-08-23T15:41:34.822Z,19.50
2022-08-23T15:44:08.811Z,19.70
2022-08-23T15:46:37.108Z,19.50
2022-08-23T15:49:14.467Z,19.40
2022-08-23T15:51:44.331Z,19.30
2022-08-23T15:54:20.309Z,19.20
2022-08-23T15:56:59.210Z,19.20
2022-08-23T15:59:34.219Z,19.30
2022-08-23T16:02:07.715Z,19.30
2022-08-23T16:04:39.472Z,19.20
2022-08-23T16:07:12.259Z,19.20
2022-08-23T16:09:48.004Z,19.10
2022-08-23T16:12:20.002Z,19.10
2022-08-23T16:14:55.955Z,19.00
2022-08-23T16:17:28.299Z,19.00
2022-08-23T16:20:04.133Z,18.90
2022-08-23T16:22:36.149Z,18.90
2022-08-23T16:25:07.483Z,18.90
2022-08-23T16:27:38.725Z,18.90
2022-08-23T16:30:13.113Z,18.90
2022-08-23T16:32:44.186Z,18.80
2022-08-23T16:35:18.666Z,18.70
2022-08-23T16:37:52.774Z,18.70
2022-08-23T16:40:22.022Z,18.70
2022-08-23T16:42:58.169Z,18.60
2022-08-23T16:45:28.706Z,18.60
2022-08-23T16:47:59.749Z,18.50
2022-08-23T17:02:04.496Z,18.40
2022-08-23T17:04:52.136Z,18.40
2022-08-23T17:07:24.509Z,18.30
2022-08-23T17:09:58.521Z,18.30
2022-08-23T17:12:32.896Z,18.30
2022-08-23T17:15:07.806Z,18.30
2022-08-23T17:17:42.626Z,18.30
2022-08-23T17:20:18.223Z,18.30
2022-08-23T17:22:54.425Z,18.30
2022-08-23T17:25:27.202Z,18.20
2022-08-23T17:28:04.071Z,18.20
2022-08-23T17:30:40.846Z,18.20
2022-08-23T17:33:17.638Z,18.10
2022-08-23T17:35:51.811Z,18.10
2022-08-23T17:38:23.425Z,18.00
2022-08-23T17:40:55.300Z,18.10
2022-08-23T17:43:25.462Z,18.00
2022-08-23T17:45:56.158Z,18.00
2022-08-23T17:48:26.288Z,18.00
2022-08-23T17:50:58.174Z,18.00
2022-08-23T17:53:34.172Z,17.90
2022-08-23T17:56:10.374Z,17.90
2022-08-23T17:59:06.049Z,18.10
2022-08-23T18:01:38.763Z,18.00
2022-08-23T18:04:08.102Z,18.00
2022-08-23T18:06:37.109Z,18.00
2022-08-23T18:09:13.625Z,18.00
2022-08-23T18:11:54.439Z,18.00
2022-08-23T18:14:27.808Z,18.00
2022-08-23T18:17:01.580Z,18.00
2022-08-23T18:19:33.284Z,18.00
2022-08-23T18:22:10.404Z,18.00
2022-08-23T18:24:42.335Z,18.00
2022-08-23T18:27:30.696Z,18.00
2022-08-23T18:30:04.006Z,18.00
2022-08-23T18:32:33.792Z,18.00
2022-08-23T18:35:07.106Z,17.90
2022-08-23T18:37:37.845Z,18.00
2022-08-23T18:40:20.593Z,18.00
2022-08-23T18:42:58.085Z,18.00
2022-08-23T18:45:34.254Z,18.00
2022-08-23T18:48:05.149Z,18.00
2022-08-23T18:50:33.871Z,18.00
2022-08-23T18:53:08.291Z,17.90
2022-08-23T18:55:40.678Z,17.80
2022-08-23T18:58:12.648Z,17.90
2022-08-23T19:00:45.386Z,17.90
2022-08-23T19:03:23.624Z,17.80
2022-08-23T19:06:02.205Z,17.80
2022-08-23T19:08:32.296Z,17.80
2022-08-23T19:11:01.419Z,17.90
2022-08-23T19:13:32.007Z,17.90
2022-08-23T19:16:08.339Z,17.90
2022-08-23T19:18:43.331Z,17.90
2022-08-23T19:21:15.264Z,18.00
2022-08-23T19:23:44.083Z,18.00
2022-08-23T19:26:15.969Z,18.00
2022-08-23T19:28:52.142Z,17.90
2022-08-23T19:31:22.042Z,17.90
2022-08-23T19:33:52.199Z,17.90
2022-08-23T19:36:44.659Z,17.90
2022-08-23T19:39:10.287Z,17.90
2022-08-23T19:41:44.255Z,18.00
2022-08-23T19:44:14.397Z,18.00
2022-08-23T19:46:51.717Z,17.90
2022-08-23T19:49:22.241Z,17.90
2022-08-23T19:51:57.890Z,17.80
2022-08-23T19:54:32.221Z,18.00
2022-08-23T19:57:07.522Z,17.90
2022-08-23T19:59:39.865Z,17.90
2022-08-23T20:02:14.833Z,18.00
2022-08-23T20:04:44.946Z,17.90
2022-08-23T20:07:17.700Z,17.90
2022-08-23T20:09:48.606Z,17.90
2022-08-23T20:12:22.496Z,17.80
2022-08-23T20:14:56.997Z,17.90
2022-08-23T20:17:33.123Z,17.80
2022-08-23T20:20:07.207Z,17.90
2022-08-23T20:22:59.038Z,17.90
2022-08-23T20:25:31.371Z,17.80
2022-08-23T20:28:02.209Z,17.80
2022-08-23T20:30:38.532Z,17.80
2022-08-23T20:33:10.628Z,17.80
2022-08-23T20:35:42.405Z,17.80
2022-08-23T20:38:28.327Z,17.90
2022-08-23T20:41:04.253Z,17.90
2022-08-23T20:43:34.741Z,17.80
2022-08-23T20:46:06.947Z,17.80
2022-08-23T20:48:38.241Z,17.80
2022-08-23T20:51:08.964Z,17.80
2022-08-23T20:53:42.114Z,17.80
2022-08-23T20:56:17.654Z,17.90
2022-08-23T20:58:50.657Z,17.90
2022-08-23T21:01:26.253Z,17.90
2022-08-23T21:03:58.160Z,17.90
2022-08-23T21:06:58.585Z,18.00
2022-08-23T21:09:31.519Z,18.10
2022-08-23T21:12:07.308Z,18.10
2022-08-23T21:14:41.469Z,18.20
2022-08-23T21:17:14.476Z,18.10
2022-08-23T21:19:44.811Z,18.20
2022-08-23T21:22:18.789Z,18.20
2022-08-23T21:24:50.432Z,18.10
2022-08-23T21:27:21.217Z,18.10
2022-08-23T21:29:52.074Z,18.20
2022-08-23T21:32:25.091Z,18.20
2022-08-23T21:34:59.807Z,18.20
2022-08-23T21:37:32.072Z,18.20
2022-08-23T21:40:02.169Z,18.20
2022-08-23T21:42:31.934Z,18.20
2022-08-23T21:45:04.873Z,18.20
2022-08-23T21:47:35.912Z,18.20
2022-08-23T21:50:07.847Z,18.30
2022-08-23T21:52:39.006Z,18.20
2022-08-23T21:55:12.490Z,18.20
2022-08-23T21:57:49.127Z,18.20
2022-08-23T22:00:24.134Z,18.20
2022-08-23T22:02:56.409Z,18.10
2022-08-23T22:05:28.996Z,18.10
2022-08-23T22:08:00.862Z,18.20
2022-08-23T22:10:34.562Z,18.20
2022-08-23T22:13:12.675Z,18.20
2022-08-23T22:15:42.680Z,18.30
2022-08-23T22:18:13.149Z,18.20
2022-08-23T22:20:43.131Z,18.10
2022-08-23T22:23:13.826Z,18.10
2022-08-23T22:25:44.391Z,18.10
2022-08-23T22:28:14.955Z,18.10
2022-08-23T22:30:45.270Z,18.10
2022-08-23T22:33:15.293Z,18.10
2022-08-23T22:35:51.010Z,18.10
2022-08-23T22:38:22.826Z,18.00
2022-08-23T22:40:59.072Z,18.10
2022-08-23T22:43:31.077Z,18.00
2022-08-23T22:46:07.825Z,18.00
2022-08-23T22:48:37.889Z,18.00
2022-08-23T22:51:11.899Z,17.90
2022-08-23T22:53:42.052Z,17.90
2022-08-23T22:56:17.861Z,17.90
2022-08-23T22:58:52.685Z,18.00
2022-08-23T23:01:25.075Z,18.00
2022-08-23T23:03:55.548Z,18.00
2022-08-23T23:06:24.314Z,17.90
2022-08-23T23:08:57.061Z,17.80
2022-08-23T23:11:30.485Z,17.90
2022-08-23T23:13:59.617Z,17.90
2022-08-23T23:16:30.679Z,18.00
2022-08-23T23:19:20.639Z,18.00
2022-08-23T23:21:57.447Z,18.00
2022-08-23T23:24:33.509Z,18.10
2022-08-23T23:27:05.386Z,18.10
2022-08-23T23:29:41.158Z,18.10
2022-08-23T23:32:11.213Z,18.10
2022-08-23T23:34:41.921Z,18.10
2022-08-23T23:37:17.410Z,18.20
2022-08-23T23:39:47.472Z,18.10
2022-08-23T23:42:21.895Z,18.00
2022-08-23T23:44:57.986Z,18.00
2022-08-23T23:47:28.365Z,18.10
2022-08-23T23:49:57.663Z,18.10
2022-08-23T23:52:28.489Z,18.20
2022-08-23T23:54:58.560Z,18.10
2022-08-23T23:57:31.453Z,18.10
